Ronks, PA (17572)

5:49 AM EST on February 12, 2016 (GMT -0500)
Paradise | | Change Station
CLOSE
Current Station
Personal Weather Station
Location: Paradise, PA
Elevation: 365 ft
Nearby Weather Stations

Elev 365 ft 40.01 °N, 76.14 °W | Updated 4 minutes ago

Partly Cloudy
Partly Cloudy
7.2 °F
Feels Like 7 °F
N
0.0
Wind Variable Wind from West
Gusts 0.0 mph

Today
High -- | Low -- °F
--% Chance of Precip.
Yesterday
High -- | Low -- °F
Precip. -- in
Pressure 30.29 in
Visibility 10.0 miles
Clouds Clear
Windchill 7 °F
Dew Point 1 °F
Humidity 77%
Rainfall 0.00 in
Snow Depth Not available.
7:01 AM 5:36 PM
Waxing Crescent, 19% visible
METAR KLNS 120953Z AUTO 24004KT 10SM CLR M12/M17 A3027 RMK AO2 SLP256 T11221172
Pressure 30.29 in
Visibility 10.0 miles
Clouds Clear
Windchill 7 °F
Dew Point 1 °F
Humidity 77%
Rainfall 0.00 in
Snow Depth Not available.
7:01 AM 5:36 PM
Waxing Crescent, 19% visible
METAR KLNS 120953Z AUTO 24004KT 10SM CLR M12/M17 A3027 RMK AO2 SLP256 T11221172

10-Day Weather Forecast

Almanac

Astronomy

Feb. 12, 2016 Rise Set
Actual Time
Civil Twilight
Nautical Twilight
Astronomical Twilight
Moon
Length of Visible Light
Length of Day
Tomorrow will be .
, % of the Moon is Illuminated

Today's Extremes

State Highs State Lows

Community

WunderPhotos

Upload Photos

1,892,289 photos uploaded!

WunderBlog® & News

Nearby

Air Quality

  Air Quality AQ Index Pollutant
Not available.

Snow Depth

Station Depth Elevation

Earthquake Activity

City Distance Mag. Time & Date
Minimum magnitude displayed is 2.5.

Coastal Water Temperatures

Place Temperature

Stations

Nearby Weather Stations

Station Location Temp. Windchill Dew Point Humidity Wind Precip. Elev Updated Type
                   

Watches & Warnings

There are currently no watches in effect.